TimeMST,TemperatureF,Dew PointF,Humidity,Sea Level PressureIn,VisibilityMPH,Wind Direction,Wind SpeedMPH,Gust SpeedMPH,PrecipitationIn,Events,Conditions,WindDirDegrees,DateUTC
12:53 AM,28.0,15.1,58,30.10,10.0,Calm,Calm,-,N/A,,Clear,0,2013-03-05 07:53:00
2:53 AM,24.1,12.9,62,30.13,10.0,Calm,Calm,-,N/A,,Clear,0,2013-03-05 09:53:00
3:53 AM,23.0,14.0,68,30.15,10.0,Calm,Calm,-,N/A,,Clear,0,2013-03-05 10:53:00
4:53 AM,21.0,12.0,68,30.19,10.0,ENE,3.5,-,N/A,,Clear,70,2013-03-05 11:53:00
6:53 AM,21.9,12.9,68,30.28,10.0,Calm,Calm,-,N/A,,Clear,0,2013-03-05 13:53:00
7:53 AM,30.0,17.1,59,30.31,10.0,Calm,Calm,-,N/A,,Clear,0,2013-03-05 14:53:00
8:53 AM,41.0,19.0,41,30.25,10.0,NNE,5.8,-,N/A,,Clear,30,2013-03-05 15:53:00
9:53 AM,48.0,18.0,30,30.20,10.0,NNE,3.5,-,N/A,,Clear,20,2013-03-05 16:53:00
10:53 AM,55.0,14.0,20,30.16,10.0,North,4.6,-,N/A,,Clear,350,2013-03-05 17:53:00
11:53 AM,57.0,17.1,21,30.19,10.0,Calm,Calm,-,N/A,,Clear,0,2013-03-05 18:53:00
12:53 PM,61.0,17.1,18,30.09,10.0,SW,5.8,-,N/A,,Clear,220,2013-03-05 19:53:00
1:53 PM,63.0,10.0,13,30.05,10.0,SSE,9.2,18.4,N/A,,Clear,160,2013-03-05 20:53:00
2:53 PM,63.0,14.0,15,30.04,10.0,Variable,3.5,17.3,N/A,,Clear,0,2013-03-05 21:53:00
3:53 PM,64.0,10.9,13,30.03,10.0,South,6.9,-,N/A,,Clear,180,2013-03-05 22:53:00
4:53 PM,63.0,6.1,11,30.05,10.0,SW,8.1,-,N/A,,Clear,220,2013-03-05 23:53:00
5:53 PM,59.0,10.0,14,30.06,10.0,West,6.9,-,N/A,,Clear,280,2013-03-06 00:53:00
6:53 PM,53.1,12.0,20,30.12,10.0,Calm,Calm,-,N/A,,Clear,0,2013-03-06 01:53:00
7:53 PM,41.0,5.0,23,30.16,10.0,Calm,Calm,-,N/A,,Clear,0,2013-03-06 02:53:00
8:53 PM,42.1,12.0,29,30.07,10.0,Calm,Calm,-,N/A,,Clear,0,2013-03-06 03:53:00
9:53 PM,43.0,14.0,31,30.03,10.0,Calm,Calm,-,N/A,,Clear,0,2013-03-06 04:53:00
10:53 PM,35.1,12.0,39,30.05,10.0,WNW,3.5,-,N/A,,Clear,290,2013-03-06 05:53:00
11:53 PM,33.1,14.0,46,30.04,10.0,ENE,4.6,-,N/A,,Clear,70,2013-03-06 06:53:00